createdAt,value
2023-04-13T00:01:11.621Z,5.40
2023-04-13T00:03:39.338Z,5.93
2023-04-13T00:06:10.784Z,6.43
2023-04-13T00:08:38.667Z,5.07
2023-04-13T00:11:07.833Z,5.10
2023-04-13T00:13:41.203Z,4.83
2023-04-13T00:16:09.811Z,5.07
2023-04-13T00:18:36.996Z,4.97
2023-04-13T00:21:07.988Z,5.43
2023-04-13T00:23:36.093Z,4.60
2023-04-13T00:26:03.347Z,5.60
2023-04-13T00:28:31.742Z,5.63
2023-04-13T00:30:58.792Z,5.17
2023-04-13T00:33:25.965Z,5.00
2023-04-13T00:35:53.056Z,5.20
2023-04-13T00:38:19.973Z,5.33
2023-04-13T00:40:46.887Z,5.13
2023-04-13T00:43:13.826Z,5.67
2023-04-13T00:45:42.665Z,5.37
2023-04-13T00:48:10.931Z,5.20
2023-04-13T00:50:39.201Z,5.07
2023-04-13T00:53:10.538Z,5.33
2023-04-13T00:55:39.325Z,5.23
2023-04-13T00:58:07.805Z,5.17
2023-04-13T01:00:38.942Z,5.03
2023-04-13T01:03:07.757Z,5.17
2023-04-13T01:05:43.390Z,4.23
2023-04-13T01:08:22.113Z,4.70
2023-04-13T01:10:58.808Z,5.07
2023-04-13T01:13:35.017Z,4.53
2023-04-13T01:16:06.525Z,5.17
2023-04-13T01:18:40.141Z,4.83
2023-04-13T01:21:14.250Z,5.40
2023-04-13T01:23:58.640Z,5.33
2023-04-13T01:26:37.044Z,4.67
2023-04-13T01:29:06.376Z,4.63
2023-04-13T01:31:35.782Z,4.63
2023-04-13T01:34:03.508Z,5.23
2023-04-13T01:36:33.473Z,5.03
2023-04-13T01:39:00.439Z,4.93
2023-04-13T01:41:27.316Z,5.73
2023-04-13T01:43:54.344Z,5.43
2023-04-13T01:46:27.912Z,4.93
2023-04-13T01:49:00.261Z,6.00
2023-04-13T01:51:32.310Z,5.97
2023-04-13T01:54:07.835Z,5.77
2023-04-13T01:56:36.122Z,5.53
2023-04-13T01:59:03.728Z,5.47
2023-04-13T02:01:31.911Z,4.50
2023-04-13T02:03:59.270Z,5.20
2023-04-13T02:06:26.335Z,5.00
2023-04-13T02:08:53.406Z,5.90
2023-04-13T02:11:20.329Z,5.77
2023-04-13T02:13:47.412Z,5.93
2023-04-13T02:16:15.658Z,5.60
2023-04-13T02:18:43.975Z,6.13
2023-04-13T02:21:11.246Z,5.80
2023-04-13T02:23:40.756Z,5.70
2023-04-13T02:26:08.532Z,5.87
2023-04-13T02:28:35.704Z,6.67
2023-04-13T02:31:06.074Z,6.53
2023-04-13T02:33:33.755Z,6.77
2023-04-13T02:36:04.042Z,6.53
2023-04-13T02:38:31.947Z,6.00
2023-04-13T02:41:00.951Z,7.00
2023-04-13T02:43:28.823Z,6.10
2023-04-13T02:45:57.934Z,6.53
2023-04-13T02:48:25.616Z,7.23
2023-04-13T02:50:53.420Z,6.87
2023-04-13T02:53:22.083Z,6.40
2023-04-13T02:55:50.281Z,6.27
2023-04-13T02:58:17.545Z,6.60
2023-04-13T03:00:44.517Z,6.33
2023-04-13T03:03:11.563Z,5.73
2023-04-13T03:05:38.775Z,5.80
2023-04-13T03:08:06.155Z,5.70
2023-04-13T03:10:34.573Z,5.33
2023-04-13T03:13:02.067Z,5.20
2023-04-13T03:15:30.566Z,4.87
2023-04-13T03:17:59.978Z,4.73
2023-04-13T03:20:29.024Z,5.90
2023-04-13T03:22:57.082Z,5.50
2023-04-13T03:25:24.067Z,5.60
2023-04-13T03:27:52.404Z,5.67
2023-04-13T03:30:19.310Z,5.07
2023-04-13T03:32:46.733Z,4.97
2023-04-13T03:35:13.730Z,5.43
2023-04-13T03:37:42.641Z,5.23
2023-04-13T03:40:11.248Z,5.73
2023-04-13T03:42:38.886Z,5.07
2023-04-13T03:45:08.620Z,5.60
2023-04-13T03:47:35.652Z,5.37
2023-04-13T03:50:03.638Z,4.67
2023-04-13T03:52:31.126Z,4.57
2023-04-13T03:54:58.114Z,4.83
2023-04-13T03:57:25.186Z,4.90
2023-04-13T03:59:52.178Z,4.23
2023-04-13T04:02:20.542Z,3.93
2023-04-13T04:04:47.541Z,4.03
2023-04-13T04:07:14.527Z,3.83
2023-04-13T04:09:42.389Z,3.97
2023-04-13T04:12:09.353Z,3.90
2023-04-13T04:14:36.810Z,3.70
2023-04-13T04:17:03.711Z,3.47
2023-04-13T04:19:31.964Z,3.87
2023-04-13T04:22:04.392Z,3.30
2023-04-13T04:24:31.425Z,2.97
2023-04-13T04:27:00.307Z,3.57
2023-04-13T04:29:33.988Z,3.80
2023-04-13T04:32:01.565Z,3.27
2023-04-13T04:34:29.025Z,3.00
2023-04-13T04:37:02.907Z,3.27
2023-04-13T04:39:32.853Z,2.70
2023-04-13T04:42:05.624Z,3.03
2023-04-13T04:44:32.672Z,2.80
2023-04-13T04:47:00.183Z,2.90
2023-04-13T04:49:28.496Z,2.60
2023-04-13T04:51:57.970Z,2.50
2023-04-13T04:54:25.528Z,2.40
2023-04-13T04:56:53.840Z,2.87
2023-04-13T04:59:20.800Z,2.63
2023-04-13T05:01:49.770Z,2.43
2023-04-13T05:04:17.165Z,2.33
2023-04-13T05:06:44.643Z,2.50
2023-04-13T05:09:14.906Z,2.57
2023-04-13T05:11:41.798Z,2.90
2023-04-13T05:14:08.688Z,2.77
2023-04-13T05:16:36.124Z,2.53
2023-04-13T05:19:05.270Z,2.30
2023-04-13T05:21:32.358Z,2.60
2023-04-13T05:23:59.817Z,2.33
2023-04-13T05:26:30.502Z,2.70
2023-04-13T05:28:57.695Z,2.30
2023-04-13T05:31:24.917Z,2.43
2023-04-13T05:33:51.840Z,2.27
2023-04-13T05:36:18.756Z,2.40
2023-04-13T05:38:45.755Z,2.10
2023-04-13T05:41:12.987Z,2.40
2023-04-13T05:43:41.359Z,2.40
2023-04-13T05:46:11.270Z,2.60
2023-04-13T05:48:38.482Z,2.60
2023-04-13T05:51:06.335Z,2.73
2023-04-13T05:53:33.218Z,1.97
2023-04-13T05:56:00.324Z,2.17
2023-04-13T05:58:27.302Z,2.40
2023-04-13T06:00:55.668Z,1.93
2023-04-13T06:03:22.995Z,1.83
2023-04-13T06:05:50.107Z,2.77
2023-04-13T06:08:17.189Z,1.90
2023-04-13T06:10:47.144Z,2.60
2023-04-13T06:13:14.561Z,2.50
2023-04-13T06:15:41.597Z,2.03
2023-04-13T06:18:09.770Z,2.00
2023-04-13T06:20:36.823Z,2.10
2023-04-13T06:23:03.952Z,2.10
2023-04-13T06:25:31.364Z,2.30
2023-04-13T06:28:00.937Z,2.03
2023-04-13T06:30:28.023Z,2.10
2023-04-13T06:32:55.195Z,1.90
2023-04-13T06:35:23.487Z,1.70
2023-04-13T06:37:51.670Z,1.70
2023-04-13T06:40:20.536Z,1.90
2023-04-13T06:42:47.466Z,1.83
2023-04-13T06:45:14.519Z,1.67
2023-04-13T06:47:41.645Z,1.30
2023-04-13T06:50:11.527Z,1.73
2023-04-13T06:52:43.780Z,1.80
2023-04-13T06:55:10.890Z,1.70
2023-04-13T06:57:37.782Z,2.00
2023-04-13T07:00:15.295Z,2.00
2023-04-13T07:02:53.393Z,2.07
2023-04-13T07:05:20.793Z,1.80
2023-04-13T07:07:49.118Z,2.00
2023-04-13T07:10:16.200Z,2.00
2023-04-13T07:12:43.072Z,2.43
2023-04-13T07:15:10.220Z,2.10
2023-04-13T07:17:37.197Z,2.20
2023-04-13T07:20:07.223Z,2.03
2023-04-13T07:22:35.190Z,2.10
2023-04-13T07:25:04.096Z,2.13
2023-04-13T07:27:32.940Z,2.33
2023-04-13T07:30:01.158Z,2.00
2023-04-13T07:32:31.517Z,2.30
2023-04-13T07:35:01.652Z,2.60
2023-04-13T07:37:32.454Z,2.20
2023-04-13T07:40:01.268Z,2.63
2023-04-13T07:42:30.805Z,1.90
2023-04-13T07:44:59.038Z,1.80
2023-04-13T07:47:29.274Z,1.90
2023-04-13T07:50:00.225Z,1.97
2023-04-13T07:52:29.972Z,2.20
2023-04-13T07:54:58.262Z,1.93
2023-04-13T07:57:29.182Z,1.80
2023-04-13T08:00:01.022Z,1.87
2023-04-13T08:02:29.057Z,1.60
2023-04-13T08:05:00.955Z,1.90
2023-04-13T08:07:39.888Z,1.70
2023-04-13T08:10:29.219Z,1.60
2023-04-13T08:13:25.837Z,1.70
2023-04-13T08:19:27.537Z,1.97
2023-04-13T08:22:14.749Z,1.73
2023-04-13T08:25:21.132Z,2.10
2023-04-13T08:31:27.913Z,1.70
2023-04-13T08:34:06.935Z,2.17
2023-04-13T08:37:13.012Z,2.00
2023-04-13T08:40:26.664Z,1.77
2023-04-13T08:43:37.924Z,1.87
2023-04-13T08:46:09.069Z,1.63
2023-04-13T08:48:53.558Z,2.10
2023-04-13T08:51:22.838Z,2.30
2023-04-13T08:53:58.868Z,2.40
2023-04-13T08:56:38.129Z,2.13
2023-04-13T08:59:15.185Z,1.87
2023-04-13T09:01:45.232Z,1.80
2023-04-13T09:04:17.946Z,2.00
2023-04-13T09:06:50.142Z,2.20
2023-04-13T09:09:19.100Z,2.03
2023-04-13T09:11:48.478Z,1.83
2023-04-13T09:14:20.157Z,2.17
2023-04-13T09:16:50.251Z,2.67
2023-04-13T09:19:29.248Z,2.00
2023-04-13T09:21:56.166Z,2.03
2023-04-13T09:24:23.458Z,1.70
2023-04-13T09:26:51.043Z,1.90
2023-04-13T09:29:20.395Z,1.53
2023-04-13T09:31:48.655Z,1.80
2023-04-13T09:34:27.640Z,1.73
2023-04-13T09:36:56.273Z,1.90
2023-04-13T09:39:26.602Z,1.80
2023-04-13T09:41:54.829Z,1.77
2023-04-13T09:44:28.067Z,1.77
2023-04-13T09:47:01.134Z,1.87
2023-04-13T09:49:37.951Z,1.80
2023-04-13T09:52:07.382Z,2.00
2023-04-13T09:54:35.083Z,2.00
2023-04-13T09:57:04.627Z,1.93
2023-04-13T09:59:32.933Z,2.00
2023-04-13T10:02:03.682Z,1.73
2023-04-13T10:04:31.172Z,1.60
2023-04-13T10:06:58.516Z,2.00
2023-04-13T10:09:26.513Z,1.57
2023-04-13T10:11:56.668Z,2.20
2023-04-13T10:14:31.688Z,2.57
2023-04-13T10:17:37.299Z,1.90
2023-04-13T10:20:12.582Z,2.30
2023-04-13T10:22:43.951Z,1.80
2023-04-13T10:25:25.699Z,2.10
2023-04-13T10:28:00.637Z,1.90
2023-04-13T10:30:28.480Z,2.00
2023-04-13T10:33:05.560Z,2.57
2023-04-13T10:35:36.995Z,2.10
2023-04-13T10:38:04.742Z,2.10
2023-04-13T10:40:45.043Z,1.93
2023-04-13T10:43:12.609Z,2.10
2023-04-13T10:45:39.557Z,1.93
2023-04-13T10:48:08.098Z,2.30
2023-04-13T10:50:35.205Z,2.07
2023-04-13T10:53:07.372Z,2.23
2023-04-13T10:55:35.319Z,2.20
2023-04-13T10:58:15.747Z,2.20
2023-04-13T11:00:46.761Z,1.80
2023-04-13T11:03:17.453Z,2.43
2023-04-13T11:05:45.971Z,1.73
2023-04-13T11:08:18.874Z,2.33
2023-04-13T11:10:51.557Z,2.10
2023-04-13T11:13:18.495Z,1.87
2023-04-13T11:15:45.649Z,1.37
2023-04-13T11:18:12.632Z,1.80
2023-04-13T11:20:41.846Z,1.50
2023-04-13T11:23:18.658Z,1.63
2023-04-13T11:25:54.696Z,1.67
2023-04-13T11:28:23.458Z,1.30
2023-04-13T11:30:55.971Z,1.63
2023-04-13T11:33:27.205Z,1.33
2023-04-13T11:35:57.370Z,1.20
2023-04-13T11:38:25.206Z,1.20
2023-04-13T11:41:01.669Z,0.90
2023-04-13T11:43:40.432Z,1.47
2023-04-13T11:46:12.724Z,1.40
2023-04-13T11:48:40.559Z,1.10
2023-04-13T11:51:11.035Z,1.53
2023-04-13T11:53:38.658Z,1.20
2023-04-13T11:56:06.539Z,1.93
2023-04-13T11:58:33.624Z,1.20
2023-04-13T12:01:13.852Z,2.60
2023-04-13T12:03:55.705Z,1.20
2023-04-13T12:06:34.301Z,1.60
2023-04-13T12:09:10.328Z,1.30
2023-04-13T12:11:50.085Z,1.37
2023-04-13T12:19:27.518Z,1.50
2023-04-13T12:21:57.658Z,1.50
2023-04-13T12:24:33.005Z,1.33
2023-04-13T12:29:38.106Z,1.57
2023-04-13T12:32:11.573Z,1.40
2023-04-13T12:34:38.479Z,1.20
2023-04-13T12:37:07.588Z,1.60
2023-04-13T12:39:35.080Z,1.70
2023-04-13T12:42:02.491Z,1.70
2023-04-13T12:44:31.229Z,1.97
2023-04-13T12:46:59.672Z,0.90
2023-04-13T12:49:26.605Z,0.80
2023-04-13T12:51:53.574Z,1.00
2023-04-13T12:54:21.837Z,0.63
2023-04-13T12:56:48.739Z,0.80
2023-04-13T12:59:16.597Z,0.90
2023-04-13T13:01:43.582Z,0.70
2023-04-13T13:04:10.784Z,0.80
2023-04-13T13:06:37.888Z,0.93
2023-04-13T13:09:05.728Z,1.00
2023-04-13T13:11:34.211Z,0.90
2023-04-13T13:14:01.206Z,0.80
2023-04-13T13:16:28.602Z,1.03
2023-04-13T13:18:55.961Z,1.10
2023-04-13T13:21:23.133Z,1.00
2023-04-13T13:23:51.409Z,1.40
2023-04-13T13:28:50.611Z,0.80
2023-04-13T13:31:17.747Z,1.37
2023-04-13T13:33:44.941Z,2.00
2023-04-13T13:36:13.730Z,0.90
2023-04-13T13:38:40.640Z,0.90
2023-04-13T13:41:07.759Z,1.10
2023-04-13T13:43:36.086Z,1.80
2023-04-13T13:46:07.824Z,0.80
2023-04-13T13:48:36.615Z,1.00
2023-04-13T13:51:06.207Z,1.13
2023-04-13T13:53:34.683Z,1.20
2023-04-13T13:56:03.706Z,1.00
2023-04-13T13:58:31.214Z,1.03
2023-04-13T14:00:58.926Z,1.33
2023-04-13T14:03:27.615Z,1.13
2023-04-13T14:05:54.694Z,1.40
2023-04-13T14:08:22.156Z,1.83
2023-04-13T14:10:50.160Z,1.40
2023-04-13T14:13:17.561Z,1.60
2023-04-13T14:15:44.817Z,1.70
2023-04-13T14:18:12.107Z,1.27
2023-04-13T14:20:40.809Z,1.03
2023-04-13T14:23:09.177Z,1.30
2023-04-13T14:25:37.533Z,1.20
2023-04-13T14:28:06.535Z,1.20
2023-04-13T14:30:33.826Z,1.00
2023-04-13T14:33:01.377Z,1.20
2023-04-13T14:35:29.188Z,1.53
2023-04-13T14:37:57.725Z,1.60
2023-04-13T14:40:24.905Z,1.43
2023-04-13T14:42:55.293Z,1.50
2023-04-13T14:45:22.441Z,1.60
2023-04-13T14:47:49.941Z,1.43
2023-04-13T14:50:17.616Z,2.17
2023-04-13T14:52:50.299Z,2.10
2023-04-13T14:55:19.365Z,1.67
2023-04-13T14:58:11.457Z,2.33
2023-04-13T15:00:38.891Z,1.70
2023-04-13T15:03:07.955Z,2.10
2023-04-13T15:05:39.137Z,1.90
2023-04-13T15:08:07.778Z,2.50
2023-04-13T15:10:36.492Z,1.63
2023-04-13T15:13:05.026Z,1.57
2023-04-13T15:15:34.612Z,1.40
2023-04-13T15:18:03.214Z,1.50
2023-04-13T15:20:31.406Z,1.23
2023-04-13T15:22:58.922Z,1.20
2023-04-13T15:25:27.447Z,1.40
2023-04-13T15:27:58.584Z,1.37
2023-04-13T15:30:28.040Z,1.30
2023-04-13T15:32:57.219Z,1.13
2023-04-13T15:35:25.839Z,1.70
2023-04-13T15:37:54.465Z,1.50
2023-04-13T15:40:27.357Z,1.50
2023-04-13T15:42:56.070Z,1.70
2023-04-13T15:45:23.329Z,1.90
2023-04-13T15:47:51.634Z,2.00
2023-04-13T15:50:19.686Z,1.93
2023-04-13T15:52:46.677Z,2.13
2023-04-13T15:55:14.032Z,1.67
2023-04-13T15:57:41.074Z,1.83
2023-04-13T16:00:11.082Z,1.53
2023-04-13T16:02:38.363Z,1.70
2023-04-13T16:05:05.809Z,1.60
2023-04-13T16:07:32.711Z,1.73
2023-04-13T16:10:01.451Z,1.23
2023-04-13T16:12:31.636Z,1.40
2023-04-13T16:14:59.424Z,1.47
2023-04-13T16:17:31.697Z,1.43
2023-04-13T16:20:08.210Z,1.57
2023-04-13T16:22:35.707Z,1.70
2023-04-13T16:25:05.448Z,3.70
2023-04-13T16:27:32.520Z,1.57
2023-04-13T16:29:59.589Z,2.20
2023-04-13T16:32:28.178Z,1.73
2023-04-13T16:34:55.591Z,1.60
2023-04-13T16:37:22.752Z,1.57
2023-04-13T16:39:49.721Z,1.70
2023-04-13T16:42:19.304Z,1.53
2023-04-13T16:44:46.203Z,1.60
2023-04-13T16:47:13.758Z,1.60
2023-04-13T16:49:42.332Z,1.70
2023-04-13T16:52:09.504Z,1.87
2023-04-13T16:54:36.826Z,1.83
2023-04-13T16:57:04.022Z,1.90
2023-04-13T16:59:31.218Z,2.10
2023-04-13T17:01:58.806Z,1.23
2023-04-13T17:04:26.546Z,2.00
2023-04-13T17:07:01.769Z,2.30
2023-04-13T17:09:29.103Z,2.53
2023-04-13T17:11:56.398Z,2.30
2023-04-13T17:14:23.319Z,2.20
2023-04-13T17:16:51.833Z,2.23
2023-04-13T17:19:19.199Z,2.47
2023-04-13T17:21:46.204Z,2.37
2023-04-13T17:24:14.400Z,2.50
2023-04-13T17:26:41.448Z,2.20
2023-04-13T17:29:08.424Z,2.50
2023-04-13T17:31:35.844Z,2.50
2023-04-13T17:34:02.883Z,2.00
2023-04-13T17:36:31.310Z,3.23
2023-04-13T17:38:58.481Z,2.57
2023-04-13T17:41:27.096Z,2.83
2023-04-13T17:43:53.959Z,2.67
2023-04-13T17:46:21.129Z,2.30
2023-04-13T17:48:48.151Z,2.30
2023-04-13T17:51:15.068Z,2.07
2023-04-13T17:53:41.945Z,2.70
2023-04-13T17:56:14.851Z,2.27
2023-04-13T17:58:43.767Z,2.13
2023-04-13T18:01:11.863Z,2.70
2023-04-13T18:03:39.481Z,2.77
2023-04-13T18:06:07.466Z,2.90
2023-04-13T18:08:34.579Z,2.93
2023-04-13T18:11:01.466Z,2.20
2023-04-13T18:13:29.288Z,2.87
2023-04-13T18:15:57.775Z,3.20
2023-04-13T18:18:25.106Z,3.40
2023-04-13T18:20:52.545Z,2.70
2023-04-13T18:23:20.254Z,4.87
2023-04-13T18:25:48.550Z,19.47
2023-04-13T18:28:16.674Z,3.97
2023-04-13T18:30:45.635Z,7.60
2023-04-13T18:33:14.216Z,3.40
2023-04-13T18:35:42.633Z,3.47
2023-04-13T18:38:10.018Z,2.83
2023-04-13T18:40:37.204Z,3.03
2023-04-13T18:43:04.105Z,3.00
2023-04-13T18:45:31.033Z,3.80
2023-04-13T18:47:58.140Z,3.17
2023-04-13T18:50:26.604Z,3.43
2023-04-13T18:52:53.671Z,3.67
2023-04-13T18:55:20.663Z,3.27
2023-04-13T18:57:47.767Z,3.97
2023-04-13T19:00:16.401Z,3.40
2023-04-13T19:02:46.718Z,4.67
2023-04-13T19:05:13.979Z,4.60
2023-04-13T19:07:44.814Z,5.20
2023-04-13T19:10:11.830Z,5.17
2023-04-13T19:12:39.132Z,5.47
2023-04-13T19:15:07.800Z,6.00
2023-04-13T19:17:37.989Z,6.03
2023-04-13T19:20:10.027Z,4.83
2023-04-13T19:22:37.303Z,4.60
2023-04-13T19:25:14.039Z,4.70
2023-04-13T19:27:41.947Z,4.50
2023-04-13T19:30:10.141Z,4.20
2023-04-13T19:32:37.335Z,4.17
2023-04-13T19:35:05.277Z,3.93
2023-04-13T19:37:32.625Z,3.97
2023-04-13T19:39:59.640Z,4.37
2023-04-13T19:42:31.228Z,4.67
2023-04-13T19:44:58.196Z,4.73
2023-04-13T19:47:25.197Z,5.20
2023-04-13T19:49:52.108Z,5.13
2023-04-13T19:52:19.099Z,4.07
2023-04-13T19:54:46.610Z,4.53
2023-04-13T19:57:13.727Z,4.67
2023-04-13T19:59:44.032Z,5.33
2023-04-13T20:02:11.619Z,4.87
2023-04-13T20:04:39.941Z,4.47
2023-04-13T20:07:07.738Z,4.80
2023-04-13T20:09:34.703Z,4.77
2023-04-13T20:12:01.823Z,4.23
2023-04-13T20:14:28.748Z,4.00
2023-04-13T20:16:57.077Z,4.00
2023-04-13T20:19:24.933Z,3.53
2023-04-13T20:21:54.129Z,3.60
2023-04-13T20:24:21.177Z,3.27
2023-04-13T20:26:48.233Z,3.20
2023-04-13T20:29:19.002Z,3.93
2023-04-13T20:31:46.056Z,2.90
2023-04-13T20:34:15.423Z,2.80
2023-04-13T20:36:42.423Z,3.33
2023-04-13T20:39:09.781Z,3.27
2023-04-13T20:41:37.062Z,3.30
2023-04-13T20:44:09.805Z,3.57
2023-04-13T20:46:41.846Z,3.27
2023-04-13T20:49:11.817Z,3.33
2023-04-13T20:51:40.149Z,3.20
2023-04-13T20:54:07.047Z,3.03
2023-04-13T20:56:34.161Z,3.27
2023-04-13T20:59:02.609Z,2.77
2023-04-13T21:01:30.446Z,3.00
2023-04-13T21:03:57.488Z,3.17
2023-04-13T21:06:24.677Z,3.30
2023-04-13T21:08:54.674Z,3.87
2023-04-13T21:11:21.619Z,3.53
2023-04-13T21:13:48.543Z,3.90
2023-04-13T21:16:15.540Z,3.83
2023-04-13T21:18:42.631Z,3.33
2023-04-13T21:21:09.518Z,8.03
2023-04-13T21:23:37.221Z,6.57
2023-04-13T21:26:07.004Z,6.10
2023-04-13T21:28:33.958Z,5.30
2023-04-13T21:31:00.878Z,4.43
2023-04-13T21:33:27.752Z,4.03
2023-04-13T21:35:54.642Z,4.10
2023-04-13T21:38:21.721Z,5.47
2023-04-13T21:40:48.695Z,4.57
2023-04-13T21:43:16.969Z,2.97
2023-04-13T21:45:44.022Z,3.20
2023-04-13T21:48:11.026Z,4.10
2023-04-13T21:50:37.909Z,6.00
2023-04-13T21:53:04.754Z,5.53
2023-04-13T21:55:31.650Z,5.37
2023-04-13T21:57:58.533Z,4.17
2023-04-13T22:00:27.108Z,3.63
2023-04-13T22:02:55.238Z,3.30
2023-04-13T22:05:22.218Z,3.23
2023-04-13T22:07:49.138Z,4.93
2023-04-13T22:10:16.067Z,5.23
2023-04-13T22:12:43.032Z,5.73
2023-04-13T22:15:11.725Z,7.03
2023-04-13T22:17:39.991Z,6.90
2023-04-13T22:20:08.685Z,5.80
2023-04-13T22:22:35.696Z,6.13
2023-04-13T22:25:02.628Z,3.97
2023-04-13T22:27:29.550Z,4.43
2023-04-13T22:29:56.615Z,3.77
2023-04-13T22:32:23.786Z,4.00
2023-04-13T22:34:52.059Z,3.13
2023-04-13T22:37:18.968Z,3.47
2023-04-13T22:39:45.846Z,3.37
2023-04-13T22:42:12.738Z,3.77
2023-04-13T22:44:39.682Z,3.73
2023-04-13T22:47:06.579Z,3.90
2023-04-13T22:49:33.516Z,3.40
2023-04-13T22:52:01.736Z,3.37
2023-04-13T22:54:28.605Z,3.23
2023-04-13T22:56:55.869Z,3.20
2023-04-13T22:59:22.794Z,3.00
2023-04-13T23:01:49.771Z,3.47
2023-04-13T23:04:16.754Z,3.20
2023-04-13T23:06:43.770Z,3.40
2023-04-13T23:09:11.943Z,3.50
2023-04-13T23:11:38.887Z,2.90
2023-04-13T23:14:06.536Z,2.90
2023-04-13T23:16:33.873Z,3.37
2023-04-13T23:19:01.201Z,4.90
2023-04-13T23:21:28.957Z,5.00
2023-04-13T23:23:56.055Z,3.67
2023-04-13T23:26:24.412Z,3.50
2023-04-13T23:28:51.325Z,4.00
2023-04-13T23:31:18.414Z,3.33
2023-04-13T23:33:45.407Z,4.00
2023-04-13T23:36:12.549Z,3.03
2023-04-13T23:38:39.448Z,3.50
2023-04-13T23:41:06.407Z,3.20
2023-04-13T23:43:34.675Z,3.43
2023-04-13T23:46:01.794Z,4.00
2023-04-13T23:48:28.898Z,3.40
2023-04-13T23:50:57.142Z,3.80
2023-04-13T23:53:24.165Z,3.73
2023-04-13T23:55:51.048Z,4.00
2023-04-13T23:58:18.085Z,3.53
